createdAt,value
2018-10-11T00:00:33.419Z,4.00
2018-10-11T00:01:33.486Z,4.00
2018-10-11T00:02:33.390Z,4.00
2018-10-11T00:03:33.423Z,4.00
2018-10-11T00:04:33.419Z,4.00
2018-10-11T00:05:33.385Z,4.00
2018-10-11T00:06:33.366Z,4.00
2018-10-11T00:07:33.496Z,4.00
2018-10-11T00:08:33.392Z,4.00
2018-10-11T00:09:33.355Z,4.00
2018-10-11T00:10:33.353Z,4.00
2018-10-11T00:11:33.326Z,4.00
2018-10-11T00:12:33.308Z,4.00
2018-10-11T00:13:33.310Z,4.00
2018-10-11T00:14:33.494Z,4.00
2018-10-11T00:15:33.302Z,4.00
2018-10-11T00:16:33.282Z,4.00
2018-10-11T00:17:33.273Z,4.00
2018-10-11T00:18:33.494Z,4.00
2018-10-11T00:19:33.269Z,4.00
2018-10-11T00:20:33.258Z,4.00
2018-10-11T00:21:33.250Z,4.00
2018-10-11T00:22:33.249Z,4.00
2018-10-11T00:23:33.326Z,4.00
2018-10-11T00:24:33.206Z,4.00
2018-10-11T00:25:33.204Z,4.00
2018-10-11T00:26:33.207Z,4.00
2018-10-11T00:27:33.193Z,4.00
2018-10-11T00:28:33.230Z,4.00
2018-10-11T00:29:33.188Z,4.00
2018-10-11T00:30:33.205Z,4.00
2018-10-11T00:31:33.162Z,4.00
2018-10-11T00:32:33.163Z,4.00
2018-10-11T00:33:33.195Z,4.00
2018-10-11T00:34:33.151Z,4.00
2018-10-11T00:35:33.129Z,4.00
2018-10-11T00:36:33.116Z,4.00
2018-10-11T00:37:33.116Z,4.00
2018-10-11T00:38:33.107Z,4.00
2018-10-11T00:39:33.199Z,4.00
2018-10-11T00:40:33.134Z,4.00
2018-10-11T00:41:33.077Z,4.00
2018-10-11T00:42:33.100Z,4.00
2018-10-11T00:43:33.073Z,4.00
2018-10-11T00:44:33.090Z,4.00
2018-10-11T00:45:33.047Z,4.00
2018-10-11T00:46:33.038Z,4.00
2018-10-11T00:47:33.038Z,4.00
2018-10-11T00:48:33.049Z,4.00
2018-10-11T00:49:33.171Z,4.00
2018-10-11T00:50:33.062Z,4.00
2018-10-11T00:51:33.004Z,4.00
2018-10-11T00:52:32.988Z,4.00
2018-10-11T00:53:33.030Z,4.00
2018-10-11T00:54:32.990Z,4.00
2018-10-11T00:55:33.079Z,4.00
2018-10-11T00:56:32.976Z,4.00
2018-10-11T00:57:32.964Z,4.00
2018-10-11T00:58:32.939Z,4.00
2018-10-11T00:59:32.939Z,4.00
2018-10-11T01:00:33.129Z,4.00
2018-10-11T01:01:32.943Z,4.00
2018-10-11T01:02:32.898Z,4.00
2018-10-11T01:03:32.895Z,4.00
2018-10-11T01:04:32.923Z,4.00
2018-10-11T01:05:32.909Z,4.00
2018-10-11T01:06:34.101Z,4.00
2018-10-11T01:07:32.898Z,4.00
2018-10-11T01:08:32.883Z,4.00
2018-10-11T01:09:32.855Z,4.00
2018-10-11T01:10:32.895Z,4.00
2018-10-11T01:11:32.861Z,4.00
2018-10-11T01:12:32.868Z,4.00
2018-10-11T01:13:32.839Z,4.00
2018-10-11T01:14:32.825Z,4.00
2018-10-11T01:15:32.818Z,4.00
2018-10-11T01:16:32.802Z,4.00
2018-10-11T01:17:32.796Z,4.00
2018-10-11T01:18:32.780Z,4.00
2018-10-11T01:19:32.829Z,4.00
2018-10-11T01:20:32.794Z,4.00
2018-10-11T01:21:32.759Z,4.00
2018-10-11T01:22:32.758Z,4.00
2018-10-11T01:23:32.749Z,4.00
2018-10-11T01:24:32.731Z,4.00
2018-10-11T01:25:32.738Z,4.00
2018-10-11T01:26:32.736Z,4.00
2018-10-11T01:27:32.730Z,4.00
2018-10-11T01:28:32.723Z,4.00
2018-10-11T01:29:32.779Z,4.00
2018-10-11T01:30:32.746Z,4.00
2018-10-11T01:31:32.713Z,4.00
2018-10-11T01:32:32.688Z,4.00
2018-10-11T01:33:32.725Z,4.00
2018-10-11T01:34:32.662Z,4.00
2018-10-11T01:35:32.667Z,4.00
2018-10-11T01:36:32.644Z,4.00
2018-10-11T01:37:32.632Z,4.00
2018-10-11T01:38:32.670Z,4.00
2018-10-11T01:39:32.641Z,4.00
2018-10-11T01:40:32.625Z,4.00
2018-10-11T01:41:32.721Z,4.00
2018-10-11T01:42:32.599Z,4.00
2018-10-11T01:43:32.602Z,4.00
2018-10-11T01:44:32.606Z,4.00
2018-10-11T01:45:32.589Z,4.00
2018-10-11T01:46:32.579Z,4.00
2018-10-11T01:47:32.555Z,4.00
2018-10-11T01:48:32.560Z,4.00
2018-10-11T01:49:32.546Z,4.00
2018-10-11T01:50:32.549Z,4.00
2018-10-11T01:51:32.646Z,4.00
2018-10-11T01:52:32.537Z,4.00
2018-10-11T01:53:32.540Z,4.00
2018-10-11T01:54:32.529Z,4.00
2018-10-11T01:55:32.525Z,4.00
2018-10-11T01:56:32.526Z,4.00
2018-10-11T01:57:32.581Z,4.00
2018-10-11T01:58:32.473Z,4.00
2018-10-11T01:59:32.470Z,4.00
2018-10-11T02:00:32.473Z,4.00
2018-10-11T02:01:32.456Z,4.00
2018-10-11T02:02:32.448Z,4.00
2018-10-11T02:03:32.687Z,4.00
2018-10-11T02:04:32.446Z,4.00
2018-10-11T02:05:32.431Z,4.00
2018-10-11T02:06:32.401Z,4.00
2018-10-11T02:07:32.412Z,4.00
2018-10-11T02:08:32.400Z,4.00
2018-10-11T02:09:32.547Z,4.00
2018-10-11T02:10:32.416Z,4.00
2018-10-11T02:11:32.380Z,4.00
2018-10-11T02:12:32.420Z,4.00
2018-10-11T02:13:32.369Z,4.00
2018-10-11T02:14:32.667Z,4.00
2018-10-11T02:15:32.362Z,4.00
2018-10-11T02:16:32.367Z,4.00
2018-10-11T02:17:32.348Z,4.00
2018-10-11T02:18:32.329Z,4.00
2018-10-11T02:19:32.327Z,4.00
2018-10-11T02:20:32.353Z,4.00
2018-10-11T02:21:32.343Z,4.00
2018-10-11T02:22:32.274Z,4.00
2018-10-11T02:23:32.283Z,4.00
2018-10-11T02:24:32.301Z,4.00
2018-10-11T02:25:32.351Z,4.00
2018-10-11T02:26:32.246Z,4.00
2018-10-11T02:27:32.264Z,4.00
2018-10-11T02:28:32.248Z,4.00
2018-10-11T02:29:32.237Z,4.00
2018-10-11T02:30:32.378Z,4.00
2018-10-11T02:31:32.229Z,4.00
2018-10-11T02:32:32.204Z,4.00
2018-10-11T02:33:32.227Z,4.00
2018-10-11T02:34:32.215Z,4.00
2018-10-11T02:35:32.208Z,4.00
2018-10-11T02:36:32.317Z,4.00
2018-10-11T02:37:32.212Z,4.00
2018-10-11T02:38:32.180Z,4.00
2018-10-11T02:39:32.168Z,4.00
2018-10-11T02:40:32.150Z,4.00
2018-10-11T02:41:32.181Z,4.00
2018-10-11T02:42:32.127Z,4.00
2018-10-11T02:43:32.126Z,4.00
2018-10-11T02:44:32.134Z,4.00
2018-10-11T02:45:32.173Z,4.00
2018-10-11T02:46:32.196Z,4.00
2018-10-11T02:47:32.085Z,4.00
2018-10-11T02:48:32.099Z,4.00
2018-10-11T02:49:32.109Z,4.00
2018-10-11T02:50:32.088Z,4.00
2018-10-11T02:51:32.077Z,4.00
2018-10-11T02:52:32.071Z,4.00
2018-10-11T02:53:32.036Z,4.00
2018-10-11T02:54:32.047Z,4.00
2018-10-11T02:55:32.045Z,4.00
2018-10-11T02:56:32.046Z,4.00
2018-10-11T02:57:32.058Z,4.00
2018-10-11T02:58:32.047Z,4.00
2018-10-11T02:59:32.005Z,4.00
2018-10-11T03:00:32.031Z,4.00
2018-10-11T03:01:32.001Z,4.00
2018-10-11T03:02:32.282Z,4.00
2018-10-11T03:03:31.975Z,4.00
2018-10-11T03:04:31.970Z,4.00
2018-10-11T03:05:31.966Z,4.00
2018-10-11T03:06:31.988Z,4.00
2018-10-11T03:07:31.945Z,4.00
2018-10-11T03:08:31.958Z,4.00
2018-10-11T03:09:31.931Z,4.00
2018-10-11T03:10:31.912Z,4.00
2018-10-11T03:11:31.930Z,4.00
2018-10-11T03:12:32.005Z,4.00
2018-10-11T03:13:31.891Z,4.00
2018-10-11T03:14:31.891Z,4.00
2018-10-11T03:15:31.917Z,4.00
2018-10-11T03:16:31.861Z,4.00
2018-10-11T03:17:31.897Z,4.00
2018-10-11T03:18:31.846Z,4.00
2018-10-11T03:19:31.894Z,4.00
2018-10-11T03:20:31.829Z,4.00
2018-10-11T03:21:31.830Z,4.00
2018-10-11T03:22:31.808Z,4.00
2018-10-11T03:23:31.812Z,4.00
2018-10-11T03:24:31.815Z,4.00
2018-10-11T03:25:31.787Z,4.00
2018-10-11T03:26:31.786Z,4.00
2018-10-11T03:27:31.769Z,4.00
2018-10-11T03:28:31.775Z,4.00
2018-10-11T03:29:31.762Z,4.00
2018-10-11T03:30:31.777Z,4.00
2018-10-11T03:31:31.761Z,4.00
2018-10-11T03:32:31.744Z,4.00
2018-10-11T03:33:31.743Z,4.00
2018-10-11T03:34:31.726Z,4.00
2018-10-11T03:35:31.761Z,4.00
2018-10-11T03:36:31.716Z,4.00
2018-10-11T03:37:31.686Z,4.00
2018-10-11T03:38:31.695Z,4.00
2018-10-11T03:39:31.687Z,4.00
2018-10-11T03:40:31.682Z,4.00
2018-10-11T03:41:31.662Z,4.00
2018-10-11T03:42:31.639Z,4.00
2018-10-11T03:43:31.657Z,4.00
2018-10-11T03:44:31.743Z,4.00
2018-10-11T03:45:31.638Z,4.00
2018-10-11T03:46:31.692Z,4.00
2018-10-11T03:47:31.641Z,4.00
2018-10-11T03:48:31.653Z,4.00
2018-10-11T03:49:31.617Z,4.00
2018-10-11T03:50:31.590Z,4.00
2018-10-11T03:51:31.576Z,4.00
2018-10-11T03:52:31.564Z,4.00
2018-10-11T03:53:31.582Z,4.00
2018-10-11T03:54:31.575Z,4.00
2018-10-11T03:55:31.668Z,4.00
2018-10-11T03:56:31.574Z,4.00
2018-10-11T03:57:31.542Z,4.00
2018-10-11T03:58:31.526Z,4.00
2018-10-11T03:59:31.537Z,4.00
2018-10-11T04:00:31.538Z,4.00
2018-10-11T04:01:31.519Z,4.00
2018-10-11T04:02:31.507Z,4.00
2018-10-11T04:03:31.505Z,4.00
2018-10-11T04:04:31.475Z,4.00
2018-10-11T04:05:31.488Z,4.00
2018-10-11T04:06:31.474Z,4.00
2018-10-11T04:07:31.468Z,4.00
2018-10-11T04:08:31.457Z,4.00
2018-10-11T04:09:31.456Z,4.00
2018-10-11T04:10:31.436Z,4.00
2018-10-11T04:11:31.427Z,4.00
2018-10-11T04:12:31.461Z,4.00
2018-10-11T04:13:31.400Z,4.00
2018-10-11T04:14:31.412Z,4.00
2018-10-11T04:15:31.486Z,4.00
2018-10-11T04:16:31.370Z,4.00
2018-10-11T04:17:31.358Z,4.00
2018-10-11T04:18:31.379Z,4.00
2018-10-11T04:19:31.353Z,4.00
2018-10-11T04:20:31.344Z,4.00
2018-10-11T04:21:31.358Z,4.00
2018-10-11T04:22:31.345Z,4.00
2018-10-11T04:23:31.341Z,4.00
2018-10-11T04:24:31.333Z,4.00
2018-10-11T04:25:31.312Z,4.00
2018-10-11T04:26:31.312Z,4.00
2018-10-11T04:27:31.292Z,4.00
2018-10-11T04:28:31.288Z,4.00
2018-10-11T04:29:31.272Z,4.00
2018-10-11T04:30:31.297Z,4.00
2018-10-11T04:31:31.271Z,4.00
2018-10-11T04:32:31.260Z,4.00
2018-10-11T04:33:31.253Z,4.00
2018-10-11T04:34:31.248Z,4.00
2018-10-11T04:35:31.234Z,4.00
2018-10-11T04:36:31.235Z,4.00
2018-10-11T04:37:31.214Z,4.00
2018-10-11T04:38:31.205Z,4.00
2018-10-11T04:39:31.183Z,4.00
2018-10-11T04:40:31.193Z,4.00
2018-10-11T04:41:31.185Z,4.00
2018-10-11T04:42:31.179Z,4.00
2018-10-11T04:43:31.165Z,4.00
2018-10-11T04:44:31.172Z,4.00
2018-10-11T04:45:31.151Z,4.00
2018-10-11T04:46:31.183Z,4.00
2018-10-11T04:47:31.138Z,4.00
2018-10-11T04:48:31.117Z,4.00
2018-10-11T04:49:31.123Z,4.00
2018-10-11T04:50:31.115Z,4.00
2018-10-11T04:51:31.104Z,4.00
2018-10-11T04:52:31.068Z,4.00
2018-10-11T04:53:31.116Z,4.00
2018-10-11T04:54:31.057Z,4.00
2018-10-11T04:55:31.077Z,4.00
2018-10-11T04:56:31.048Z,4.00
2018-10-11T04:57:31.052Z,4.00
2018-10-11T04:58:31.050Z,4.00
2018-10-11T04:59:31.029Z,4.00
2018-10-11T05:00:31.022Z,4.00
2018-10-11T05:01:31.007Z,4.00
2018-10-11T05:02:30.990Z,4.00
2018-10-11T05:03:30.987Z,4.00
2018-10-11T05:04:30.986Z,4.00
2018-10-11T05:05:31.079Z,4.00
2018-10-11T05:06:30.963Z,4.00
2018-10-11T05:07:30.984Z,4.00
2018-10-11T05:08:30.944Z,4.00
2018-10-11T05:09:30.956Z,4.00
2018-10-11T05:10:30.925Z,4.00
2018-10-11T05:11:30.946Z,4.00
2018-10-11T05:12:30.926Z,4.00
2018-10-11T05:13:30.916Z,4.00
2018-10-11T05:14:30.910Z,4.00
2018-10-11T05:15:30.900Z,4.00
2018-10-11T05:16:30.887Z,4.00
2018-10-11T05:17:30.950Z,4.00
2018-10-11T05:18:30.899Z,4.00
2018-10-11T05:19:30.902Z,4.00
2018-10-11T05:20:30.847Z,4.00
2018-10-11T05:21:30.900Z,4.00
2018-10-11T05:22:30.829Z,4.00
2018-10-11T05:23:30.822Z,4.00
2018-10-11T05:24:30.834Z,4.00
2018-10-11T05:25:30.843Z,4.00
2018-10-11T05:26:30.804Z,4.00
2018-10-11T05:27:30.808Z,4.00
2018-10-11T05:28:30.778Z,4.00
2018-10-11T05:29:30.793Z,4.00
2018-10-11T05:30:30.766Z,4.00
2018-10-11T05:31:30.805Z,4.00
2018-10-11T05:32:30.792Z,4.00
2018-10-11T05:33:30.753Z,4.00
2018-10-11T05:34:30.746Z,4.00
2018-10-11T05:35:30.727Z,4.00
2018-10-11T05:36:30.727Z,4.00
2018-10-11T05:37:30.720Z,4.00
2018-10-11T05:38:30.745Z,4.00
2018-10-11T05:39:30.710Z,4.00
2018-10-11T05:40:30.703Z,4.00
2018-10-11T05:41:30.684Z,4.00
2018-10-11T05:42:30.680Z,4.00
2018-10-11T05:43:30.671Z,4.00
2018-10-11T05:44:30.753Z,4.00
2018-10-11T05:45:30.671Z,4.00
2018-10-11T05:46:30.685Z,4.00
2018-10-11T05:47:30.655Z,4.00
2018-10-11T05:48:30.633Z,4.00
2018-10-11T05:49:30.613Z,4.00
2018-10-11T05:50:30.612Z,4.00
2018-10-11T05:51:30.629Z,4.00
2018-10-11T05:52:30.598Z,4.00
2018-10-11T05:53:30.587Z,4.00
2018-10-11T05:54:30.572Z,4.00
2018-10-11T05:55:30.569Z,4.00
2018-10-11T05:56:30.577Z,4.00
2018-10-11T05:57:30.661Z,4.00
2018-10-11T05:58:30.540Z,4.00
2018-10-11T05:59:30.523Z,4.00
2018-10-11T06:00:30.530Z,4.00
2018-10-11T06:01:30.514Z,4.00
2018-10-11T06:02:30.507Z,4.00
2018-10-11T06:03:30.490Z,4.00
2018-10-11T06:04:30.487Z,4.00
2018-10-11T06:05:30.491Z,4.00
2018-10-11T06:06:30.506Z,4.00
2018-10-11T06:07:30.505Z,4.00
2018-10-11T06:08:30.474Z,4.00
2018-10-11T06:09:30.482Z,4.00
2018-10-11T06:10:30.454Z,4.00
2018-10-11T06:11:30.494Z,4.00
2018-10-11T06:12:30.483Z,4.00
2018-10-11T06:13:30.727Z,4.00
2018-10-11T06:14:30.434Z,4.00
2018-10-11T06:15:30.445Z,4.00
2018-10-11T06:16:30.390Z,4.00
2018-10-11T06:17:30.380Z,4.00
2018-10-11T06:18:30.385Z,4.00
2018-10-11T06:19:30.372Z,4.00
2018-10-11T06:20:30.376Z,4.00
2018-10-11T06:21:30.363Z,4.00
2018-10-11T06:22:30.344Z,4.00
2018-10-11T06:23:30.348Z,4.00
2018-10-11T06:24:30.345Z,4.00
2018-10-11T06:25:30.374Z,4.00
2018-10-11T06:26:30.301Z,4.00
2018-10-11T06:27:30.325Z,4.00
2018-10-11T06:28:30.324Z,4.00
2018-10-11T06:29:30.379Z,4.00
2018-10-11T06:30:30.298Z,4.00
2018-10-11T06:31:30.262Z,4.00
2018-10-11T06:32:30.247Z,4.00
2018-10-11T06:33:30.255Z,4.00
2018-10-11T06:34:30.264Z,4.00
2018-10-11T06:35:30.250Z,4.00
2018-10-11T06:36:30.318Z,4.00
2018-10-11T06:37:30.238Z,4.00
2018-10-11T06:38:30.214Z,4.00
2018-10-11T06:39:30.227Z,4.00
2018-10-11T06:40:30.197Z,4.00
2018-10-11T06:41:30.200Z,4.00
2018-10-11T06:42:30.240Z,4.00
2018-10-11T06:43:30.201Z,4.00
2018-10-11T06:44:30.171Z,4.00
2018-10-11T06:45:30.512Z,4.00
2018-10-11T06:46:30.173Z,4.00
2018-10-11T06:47:30.145Z,4.00
2018-10-11T06:48:30.150Z,4.00
2018-10-11T06:49:30.137Z,4.00
2018-10-11T06:50:30.214Z,4.00
2018-10-11T06:51:30.120Z,4.00
2018-10-11T06:52:30.099Z,4.00
2018-10-11T06:53:30.082Z,4.00
2018-10-11T06:54:30.093Z,4.00
2018-10-11T06:55:30.102Z,4.00
2018-10-11T06:56:30.304Z,4.00
2018-10-11T06:57:30.069Z,4.00
2018-10-11T06:58:30.060Z,4.00
2018-10-11T06:59:30.069Z,4.00
2018-10-11T07:00:30.050Z,4.00
2018-10-11T07:01:30.038Z,4.00
2018-10-11T07:02:30.019Z,4.00
2018-10-11T07:03:30.010Z,4.00
2018-10-11T07:04:30.016Z,4.00
2018-10-11T07:05:30.016Z,4.00
2018-10-11T07:06:30.000Z,4.00
2018-10-11T07:07:30.288Z,4.00
2018-10-11T07:08:29.959Z,4.00
2018-10-11T07:09:29.969Z,4.00
2018-10-11T07:10:29.959Z,4.00
2018-10-11T07:11:29.954Z,4.00
2018-10-11T07:12:29.943Z,4.00
2018-10-11T07:13:29.946Z,4.00
2018-10-11T07:14:29.924Z,4.00
2018-10-11T07:15:29.932Z,4.00
2018-10-11T07:16:29.903Z,4.00
2018-10-11T07:17:30.017Z,4.00
2018-10-11T07:18:29.905Z,4.00
2018-10-11T07:19:29.927Z,4.00
2018-10-11T07:20:29.932Z,4.00
2018-10-11T07:21:29.868Z,4.00
2018-10-11T07:22:29.859Z,4.00
2018-10-11T07:23:29.973Z,4.00
2018-10-11T07:24:29.854Z,4.00
2018-10-11T07:25:29.822Z,4.00
2018-10-11T07:26:29.832Z,4.00
2018-10-11T07:27:29.842Z,4.00
2018-10-11T07:28:29.822Z,4.00
2018-10-11T07:29:29.799Z,4.00
2018-10-11T07:30:29.808Z,4.00
2018-10-11T07:31:29.796Z,4.00
2018-10-11T07:32:29.765Z,4.00
2018-10-11T07:33:31.284Z,4.00
2018-10-11T07:34:29.819Z,4.00
2018-10-11T07:35:30.009Z,4.00
2018-10-11T07:36:29.755Z,4.00
2018-10-11T07:37:29.740Z,4.00
2018-10-11T07:38:29.731Z,4.00
2018-10-11T07:39:29.748Z,4.00
2018-10-11T07:40:29.799Z,4.00
2018-10-11T07:41:29.713Z,4.00
2018-10-11T07:42:29.717Z,4.00
2018-10-11T07:43:29.692Z,4.00
2018-10-11T07:44:29.697Z,4.00
2018-10-11T07:45:29.684Z,4.00
2018-10-11T07:46:29.659Z,4.00
2018-10-11T07:47:29.720Z,4.00
2018-10-11T07:48:29.709Z,4.00
2018-10-11T07:49:29.641Z,4.00
2018-10-11T07:50:29.655Z,4.00
2018-10-11T07:51:29.627Z,4.00
2018-10-11T07:52:29.639Z,4.00
2018-10-11T07:53:29.615Z,4.00
2018-10-11T07:54:29.604Z,4.00
2018-10-11T07:55:29.895Z,4.00
2018-10-11T07:56:29.584Z,4.00
2018-10-11T07:57:29.578Z,4.00
2018-10-11T07:58:29.565Z,4.00
2018-10-11T07:59:29.575Z,4.00
2018-10-11T08:00:29.601Z,4.00
2018-10-11T08:01:29.903Z,4.00
2018-10-11T08:02:29.554Z,4.00
2018-10-11T08:03:29.616Z,4.00
2018-10-11T08:04:29.532Z,4.00
2018-10-11T08:05:29.510Z,4.00
2018-10-11T08:06:29.556Z,4.00
2018-10-11T08:07:29.555Z,4.00
2018-10-11T08:08:29.507Z,4.00
2018-10-11T08:09:29.494Z,4.00
2018-10-11T08:10:29.549Z,4.00
2018-10-11T08:11:29.622Z,4.00
2018-10-11T08:12:29.719Z,4.00
2018-10-11T08:13:29.463Z,4.00
2018-10-11T08:14:29.456Z,4.00
2018-10-11T08:15:29.427Z,4.00
2018-10-11T08:16:29.549Z,4.00
2018-10-11T08:17:29.682Z,4.00
2018-10-11T08:18:29.398Z,4.00
2018-10-11T08:19:29.640Z,4.00
2018-10-11T08:20:29.429Z,4.00
2018-10-11T08:21:29.422Z,4.00
2018-10-11T08:22:29.413Z,4.00
2018-10-11T08:23:29.371Z,4.00
2018-10-11T08:24:29.390Z,8.00
2018-10-11T08:25:29.530Z,8.00
2018-10-11T08:26:29.728Z,8.00
2018-10-11T08:27:29.338Z,8.00
2018-10-11T08:28:29.419Z,8.00
2018-10-11T08:29:29.309Z,8.00
2018-10-11T08:30:29.329Z,8.00
2018-10-11T08:31:29.310Z,12.00
2018-10-11T08:32:29.443Z,8.00
2018-10-11T08:33:29.588Z,8.00
2018-10-11T08:34:29.284Z,12.00
2018-10-11T08:35:29.281Z,12.00
2018-10-11T08:36:29.266Z,12.00
2018-10-11T08:37:29.286Z,8.00
2018-10-11T08:38:29.308Z,8.00
2018-10-11T08:39:29.221Z,12.00
2018-10-11T08:40:29.237Z,12.00
2018-10-11T08:41:29.226Z,12.00
2018-10-11T08:42:29.233Z,12.00
2018-10-11T08:43:29.233Z,12.00
2018-10-11T08:44:29.242Z,16.00
2018-10-11T08:45:29.210Z,16.00
2018-10-11T08:46:29.195Z,16.00
2018-10-11T08:47:29.184Z,20.00
2018-10-11T08:48:29.176Z,20.00
2018-10-11T08:49:29.311Z,16.00
2018-10-11T08:50:29.207Z,12.00
2018-10-11T08:51:29.144Z,12.00
2018-10-11T08:52:29.116Z,16.00
2018-10-11T08:53:29.188Z,16.00
2018-10-11T08:54:29.122Z,20.00
2018-10-11T08:55:29.111Z,16.00
2018-10-11T08:56:29.090Z,20.00
2018-10-11T08:57:29.094Z,20.00
2018-10-11T08:58:29.088Z,20.00
2018-10-11T08:59:29.230Z,24.00
2018-10-11T09:00:29.065Z,28.00
2018-10-11T09:01:29.070Z,28.00
2018-10-11T09:02:29.045Z,28.00
2018-10-11T09:03:29.080Z,24.00
2018-10-11T09:04:29.020Z,28.00
2018-10-11T09:05:29.023Z,24.00
2018-10-11T09:06:29.056Z,28.00
2018-10-11T09:07:28.997Z,28.00
2018-10-11T09:08:28.999Z,28.00
2018-10-11T09:09:29.124Z,36.00
2018-10-11T09:10:38.108Z,44.00
2018-10-11T09:11:29.016Z,48.00
2018-10-11T09:12:28.960Z,48.00
2018-10-11T09:13:28.962Z,52.00
2018-10-11T09:14:29.258Z,52.00
2018-10-11T09:15:28.944Z,52.00
2018-10-11T09:16:28.925Z,56.00
2018-10-11T09:17:28.987Z,60.00
2018-10-11T09:18:28.936Z,56.00
2018-10-11T09:19:28.928Z,56.00
2018-10-11T09:20:28.890Z,56.00
2018-10-11T09:21:28.903Z,52.00
2018-10-11T09:22:28.885Z,44.00
2018-10-11T09:23:28.886Z,48.00
2018-10-11T09:24:28.910Z,48.00
2018-10-11T09:25:29.164Z,40.00
2018-10-11T09:26:28.866Z,40.00
2018-10-11T09:27:28.867Z,44.00
2018-10-11T09:28:28.843Z,36.00
2018-10-11T09:29:28.822Z,40.00
2018-10-11T09:30:28.906Z,44.00
2018-10-11T09:31:28.816Z,40.00
2018-10-11T09:32:28.815Z,44.00
2018-10-11T09:33:28.779Z,40.00
2018-10-11T09:34:28.779Z,40.00
2018-10-11T09:35:28.767Z,36.00
2018-10-11T09:36:28.834Z,40.00
2018-10-11T09:37:28.765Z,36.00
2018-10-11T09:38:28.738Z,40.00
2018-10-11T09:39:28.774Z,44.00
2018-10-11T09:40:28.739Z,44.00
2018-10-11T09:41:28.710Z,40.00
2018-10-11T09:42:28.725Z,48.00
2018-10-11T09:43:28.721Z,56.00
2018-10-11T09:44:28.716Z,60.00
2018-10-11T09:45:28.690Z,64.00
2018-10-11T09:46:28.685Z,64.00
2018-10-11T09:47:28.780Z,72.00
2018-10-11T09:48:28.724Z,76.00
2018-10-11T09:49:28.654Z,76.00
2018-10-11T09:50:28.646Z,80.00
2018-10-11T09:51:28.648Z,84.00
2018-10-11T09:52:28.622Z,80.00
2018-10-11T09:53:28.913Z,80.00
2018-10-11T09:54:28.695Z,76.00
2018-10-11T09:55:28.612Z,72.00
2018-10-11T09:56:28.603Z,68.00
2018-10-11T09:57:28.600Z,68.00
2018-10-11T09:58:28.593Z,72.00
2018-10-11T09:59:28.869Z,80.00
2018-10-11T10:00:28.594Z,80.00
2018-10-11T10:01:28.557Z,76.00
2018-10-11T10:02:28.565Z,80.00
2018-10-11T10:03:28.555Z,88.00
2018-10-11T10:04:28.537Z,96.00
2018-10-11T10:05:28.553Z,100.00
2018-10-11T10:06:28.555Z,96.00
2018-10-11T10:07:28.517Z,96.00
2018-10-11T10:08:28.514Z,92.00
2018-10-11T10:09:28.502Z,96.00
2018-10-11T10:10:28.537Z,100.00
2018-10-11T10:11:28.515Z,100.00
2018-10-11T10:12:28.510Z,108.00
2018-10-11T10:13:28.454Z,112.00
2018-10-11T10:14:28.464Z,104.00
2018-10-11T10:15:28.601Z,108.00
2018-10-11T10:16:28.432Z,112.00
2018-10-11T10:17:28.417Z,128.00
2018-10-11T10:18:28.438Z,136.00
2018-10-11T10:19:28.417Z,144.00
2018-10-11T10:20:28.422Z,136.00
2018-10-11T10:21:28.442Z,128.00
2018-10-11T10:22:28.390Z,132.00
2018-10-11T10:23:28.380Z,144.00
2018-10-11T10:24:28.381Z,144.00
2018-10-11T10:25:29.063Z,160.00
2018-10-11T10:26:28.403Z,180.00
2018-10-11T10:27:28.432Z,188.00
2018-10-11T10:28:28.338Z,192.00
2018-10-11T10:29:28.347Z,188.00
2018-10-11T10:30:28.332Z,192.00
2018-10-11T10:31:28.432Z,204.00
2018-10-11T10:32:28.306Z,204.00
2018-10-11T10:33:28.312Z,216.00
2018-10-11T10:34:28.357Z,224.00
2018-10-11T10:35:28.293Z,232.00
2018-10-11T10:36:28.285Z,232.00
2018-10-11T10:37:28.286Z,236.00
2018-10-11T10:38:28.269Z,252.00
2018-10-11T10:39:28.270Z,256.00
2018-10-11T10:40:28.253Z,248.00
2018-10-11T10:41:28.224Z,264.00
2018-10-11T10:42:28.287Z,264.00
2018-10-11T10:43:28.229Z,268.00
2018-10-11T10:44:28.218Z,264.00
2018-10-11T10:45:28.225Z,280.00
2018-10-11T10:46:28.190Z,292.00
2018-10-11T10:47:28.297Z,296.00
2018-10-11T10:48:28.203Z,288.00
2018-10-11T10:49:28.180Z,296.00
2018-10-11T10:50:28.173Z,288.00
2018-10-11T10:51:28.190Z,292.00
2018-10-11T10:52:28.286Z,308.00
2018-10-11T10:53:28.183Z,328.00
2018-10-11T10:54:28.149Z,320.00
2018-10-11T10:55:28.143Z,348.00
2018-10-11T10:56:28.159Z,344.00
2018-10-11T10:57:28.375Z,324.00
2018-10-11T10:58:28.111Z,340.00
2018-10-11T10:59:28.145Z,356.00
2018-10-11T11:00:28.104Z,344.00
2018-10-11T11:01:28.066Z,340.00
2018-10-11T11:02:28.172Z,344.00
2018-10-11T11:03:28.107Z,336.00
2018-10-11T11:04:28.068Z,332.00
2018-10-11T11:05:28.053Z,336.00
2018-10-11T11:06:28.045Z,336.00
2018-10-11T11:07:28.090Z,332.00
2018-10-11T11:08:28.273Z,316.00
2018-10-11T11:09:28.073Z,292.00
2018-10-11T11:10:28.005Z,312.00
2018-10-11T11:11:28.013Z,340.00
2018-10-11T11:12:28.035Z,336.00
2018-10-11T11:13:28.084Z,352.00
2018-10-11T11:14:27.982Z,352.00
2018-10-11T11:15:27.971Z,336.00
2018-10-11T11:16:27.968Z,332.00
2018-10-11T11:17:27.947Z,336.00
2018-10-11T11:18:27.958Z,320.00
2018-10-11T11:19:27.945Z,328.00
2018-10-11T11:20:27.915Z,356.00
2018-10-11T11:21:27.942Z,372.00
2018-10-11T11:22:27.925Z,344.00
2018-10-11T11:23:27.947Z,420.00
2018-10-11T11:24:27.939Z,432.00
2018-10-11T11:25:27.896Z,408.00
2018-10-11T11:26:27.875Z,400.00
2018-10-11T11:27:27.891Z,376.00
2018-10-11T11:28:27.880Z,404.00
2018-10-11T11:29:27.859Z,424.00
2018-10-11T11:30:27.860Z,436.00
2018-10-11T11:31:27.875Z,464.00
2018-10-11T11:32:27.848Z,472.00
2018-10-11T11:33:27.840Z,448.00
2018-10-11T11:34:27.814Z,416.00
2018-10-11T11:35:27.818Z,388.00
2018-10-11T11:36:27.823Z,392.00
2018-10-11T11:37:27.803Z,392.00
2018-10-11T11:38:27.809Z,352.00
2018-10-11T11:39:27.833Z,380.00
2018-10-11T11:40:27.789Z,408.00
2018-10-11T11:41:27.772Z,372.00
2018-10-11T11:42:27.752Z,356.00
2018-10-11T11:43:27.759Z,400.00
2018-10-11T11:44:27.760Z,468.00
2018-10-11T11:45:27.744Z,464.00
2018-10-11T11:46:27.717Z,472.00
2018-10-11T11:47:27.842Z,488.00
2018-10-11T11:48:27.698Z,428.00
2018-10-11T11:49:27.719Z,368.00
2018-10-11T11:50:27.729Z,324.00
2018-10-11T11:51:27.698Z,264.00
2018-10-11T11:52:27.707Z,232.00
2018-10-11T11:53:27.687Z,228.00
2018-10-11T11:54:27.658Z,216.00
2018-10-11T11:55:27.663Z,224.00
2018-10-11T11:56:27.725Z,208.00
2018-10-11T11:57:27.655Z,204.00
2018-10-11T11:58:27.645Z,236.00
2018-10-11T11:59:27.647Z,288.00
2018-10-11T12:00:27.618Z,304.00
2018-10-11T12:01:27.630Z,344.00
2018-10-11T12:02:27.653Z,404.00
2018-10-11T12:03:27.607Z,432.00
2018-10-11T12:04:27.693Z,420.00
2018-10-11T12:05:27.590Z,392.00
2018-10-11T12:06:27.597Z,380.00
2018-10-11T12:07:27.759Z,360.00
2018-10-11T12:08:27.600Z,348.00
2018-10-11T12:09:27.558Z,328.00
2018-10-11T12:10:27.582Z,352.00
2018-10-11T12:11:27.543Z,468.00
2018-10-11T12:12:27.524Z,516.00
2018-10-11T12:13:27.540Z,532.00
2018-10-11T12:14:27.526Z,540.00
2018-10-11T12:15:27.511Z,556.00
2018-10-11T12:16:27.559Z,548.00
2018-10-11T12:17:27.475Z,532.00
2018-10-11T12:18:27.482Z,580.00
2018-10-11T12:19:27.474Z,612.00
2018-10-11T12:20:27.607Z,632.00
2018-10-11T12:21:27.515Z,636.00
2018-10-11T12:22:27.442Z,648.00
2018-10-11T12:23:27.451Z,616.00
2018-10-11T12:24:27.450Z,540.00
2018-10-11T12:25:27.416Z,436.00
2018-10-11T12:26:27.471Z,424.00
2018-10-11T12:27:27.428Z,388.00
2018-10-11T12:28:27.498Z,380.00
2018-10-11T12:29:27.385Z,352.00
2018-10-11T12:30:27.406Z,308.00
2018-10-11T12:31:27.491Z,296.00
2018-10-11T12:32:27.394Z,284.00
2018-10-11T12:33:27.373Z,332.00
2018-10-11T12:34:27.366Z,320.00
2018-10-11T12:35:27.353Z,344.00
2018-10-11T12:36:27.416Z,328.00
2018-10-11T12:37:27.453Z,320.00
2018-10-11T12:38:27.408Z,368.00
2018-10-11T12:39:27.330Z,436.00
2018-10-11T12:40:27.324Z,496.00
2018-10-11T12:41:27.317Z,592.00
2018-10-11T12:42:27.422Z,632.00
2018-10-11T12:43:27.265Z,644.00
2018-10-11T12:44:27.289Z,628.00
2018-10-11T12:45:27.407Z,604.00
2018-10-11T12:46:27.273Z,616.00
2018-10-11T12:47:27.253Z,624.00
2018-10-11T12:48:27.256Z,584.00
2018-10-11T12:49:27.405Z,548.00
2018-10-11T12:50:27.232Z,492.00
2018-10-11T12:51:27.239Z,492.00
2018-10-11T12:52:27.218Z,484.00
2018-10-11T12:53:27.223Z,416.00
2018-10-11T12:54:27.190Z,460.00
2018-10-11T12:55:27.191Z,540.00
2018-10-11T12:56:27.253Z,552.00
2018-10-11T12:57:27.239Z,568.00
2018-10-11T12:58:27.609Z,620.00
2018-10-11T12:59:27.177Z,620.00
2018-10-11T13:00:27.158Z,648.00
2018-10-11T13:01:27.147Z,644.00
2018-10-11T13:02:27.141Z,664.00
2018-10-11T13:03:27.226Z,700.00